sensor_id;sensor_type;location;lat;lon;timestamp;P1;durP1;ratioP1;P2;durP2;ratioP2
11691;SDS011;33659;42.672;23.354;2022-07-29T00:01:37;6.53;;;5.65;;
11691;SDS011;33659;42.672;23.354;2022-07-29T00:04:04;7.38;;;5.75;;
11691;SDS011;33659;42.672;23.354;2022-07-29T00:06:32;10.73;;;6.40;;
11691;SDS011;33659;42.672;23.354;2022-07-29T00:08:58;6.72;;;5.75;;
11691;SDS011;33659;42.672;23.354;2022-07-29T00:11:25;7.05;;;6.10;;
11691;SDS011;33659;42.672;23.354;2022-07-29T00:13:52;8.20;;;6.32;;
11691;SDS011;33659;42.672;23.354;2022-07-29T00:16:18;6.35;;;5.60;;
11691;SDS011;33659;42.672;23.354;2022-07-29T00:18:45;8.15;;;5.82;;
11691;SDS011;33659;42.672;23.354;2022-07-29T00:21:12;8.27;;;5.40;;
11691;SDS011;33659;42.672;23.354;2022-07-29T00:23:40;8.77;;;5.90;;
11691;SDS011;33659;42.672;23.354;2022-07-29T00:26:07;7.15;;;5.63;;
11691;SDS011;33659;42.672;23.354;2022-07-29T00:28:33;7.32;;;5.80;;
11691;SDS011;33659;42.672;23.354;2022-07-29T00:31:00;6.60;;;5.75;;
11691;SDS011;33659;42.672;23.354;2022-07-29T00:33:27;6.45;;;5.80;;
11691;SDS011;33659;42.672;23.354;2022-07-29T00:35:54;6.22;;;5.63;;
11691;SDS011;33659;42.672;23.354;2022-07-29T00:38:20;5.75;;;5.25;;
11691;SDS011;33659;42.672;23.354;2022-07-29T00:40:48;5.80;;;5.00;;
11691;SDS011;33659;42.672;23.354;2022-07-29T00:43:16;6.63;;;5.32;;
11691;SDS011;33659;42.672;23.354;2022-07-29T00:45:43;8.77;;;5.57;;
11691;SDS011;33659;42.672;23.354;2022-07-29T00:48:10;6.00;;;5.38;;
11691;SDS011;33659;42.672;23.354;2022-07-29T00:50:37;5.57;;;4.97;;
11691;SDS011;33659;42.672;23.354;2022-07-29T00:53:05;7.32;;;5.05;;
11691;SDS011;33659;42.672;23.354;2022-07-29T00:55:33;5.70;;;5.10;;
11691;SDS011;33659;42.672;23.354;2022-07-29T00:58:02;6.78;;;5.65;;
11691;SDS011;33659;42.672;23.354;2022-07-29T01:00:29;7.50;;;6.15;;
11691;SDS011;33659;42.672;23.354;2022-07-29T01:02:56;7.15;;;6.22;;
11691;SDS011;33659;42.672;23.354;2022-07-29T01:05:24;8.23;;;5.80;;
11691;SDS011;33659;42.672;23.354;2022-07-29T01:07:53;6.88;;;5.97;;
11691;SDS011;33659;42.672;23.354;2022-07-29T01:10:23;8.68;;;7.38;;
11691;SDS011;33659;42.672;23.354;2022-07-29T01:12:51;9.70;;;7.00;;
11691;SDS011;33659;42.672;23.354;2022-07-29T01:15:21;7.80;;;6.43;;
11691;SDS011;33659;42.672;23.354;2022-07-29T01:17:51;9.57;;;7.30;;
11691;SDS011;33659;42.672;23.354;2022-07-29T01:20:24;9.55;;;7.70;;
11691;SDS011;33659;42.672;23.354;2022-07-29T01:23:11;10.27;;;8.35;;
11691;SDS011;33659;42.672;23.354;2022-07-29T01:25:58;9.10;;;7.80;;
11691;SDS011;33659;42.672;23.354;2022-07-29T01:28:47;10.18;;;8.10;;
11691;SDS011;33659;42.672;23.354;2022-07-29T01:31:22;8.05;;;7.25;;
11691;SDS011;33659;42.672;23.354;2022-07-29T01:33:55;12.52;;;8.52;;
11691;SDS011;33659;42.672;23.354;2022-07-29T01:36:27;10.23;;;7.80;;
11691;SDS011;33659;42.672;23.354;2022-07-29T01:38:59;10.73;;;7.15;;
11691;SDS011;33659;42.672;23.354;2022-07-29T01:41:32;9.68;;;7.85;;
11691;SDS011;33659;42.672;23.354;2022-07-29T01:44:06;8.52;;;7.63;;
11691;SDS011;33659;42.672;23.354;2022-07-29T01:46:39;10.35;;;7.28;;
11691;SDS011;33659;42.672;23.354;2022-07-29T01:49:11;10.38;;;8.10;;
11691;SDS011;33659;42.672;23.354;2022-07-29T01:51:44;9.25;;;7.45;;
11691;SDS011;33659;42.672;23.354;2022-07-29T01:54:17;11.50;;;8.50;;
11691;SDS011;33659;42.672;23.354;2022-07-29T01:56:48;14.40;;;8.73;;
11691;SDS011;33659;42.672;23.354;2022-07-29T01:59:19;12.43;;;9.02;;
11691;SDS011;33659;42.672;23.354;2022-07-29T02:01:48;8.77;;;7.85;;
11691;SDS011;33659;42.672;23.354;2022-07-29T02:04:18;10.05;;;8.18;;
11691;SDS011;33659;42.672;23.354;2022-07-29T02:06:46;10.05;;;8.25;;
11691;SDS011;33659;42.672;23.354;2022-07-29T02:09:15;10.05;;;9.00;;
11691;SDS011;33659;42.672;23.354;2022-07-29T02:11:47;11.13;;;9.38;;
11691;SDS011;33659;42.672;23.354;2022-07-29T02:14:19;13.10;;;9.40;;
11691;SDS011;33659;42.672;23.354;2022-07-29T02:16:49;15.52;;;8.98;;
11691;SDS011;33659;42.672;23.354;2022-07-29T02:19:18;12.82;;;9.50;;
11691;SDS011;33659;42.672;23.354;2022-07-29T02:21:47;10.35;;;8.13;;
11691;SDS011;33659;42.672;23.354;2022-07-29T02:24:15;9.98;;;8.68;;
11691;SDS011;33659;42.672;23.354;2022-07-29T02:26:43;9.55;;;7.95;;
11691;SDS011;33659;42.672;23.354;2022-07-29T02:29:11;8.15;;;7.35;;
11691;SDS011;33659;42.672;23.354;2022-07-29T02:31:42;9.00;;;8.07;;
11691;SDS011;33659;42.672;23.354;2022-07-29T02:34:12;10.25;;;8.63;;
11691;SDS011;33659;42.672;23.354;2022-07-29T02:36:40;10.75;;;8.15;;
11691;SDS011;33659;42.672;23.354;2022-07-29T02:39:10;9.55;;;8.13;;
11691;SDS011;33659;42.672;23.354;2022-07-29T02:41:40;10.93;;;8.27;;
11691;SDS011;33659;42.672;23.354;2022-07-29T02:44:09;9.85;;;6.55;;
11691;SDS011;33659;42.672;23.354;2022-07-29T02:46:37;6.93;;;6.15;;
11691;SDS011;33659;42.672;23.354;2022-07-29T02:49:13;7.40;;;6.43;;
11691;SDS011;33659;42.672;23.354;2022-07-29T02:51:43;7.43;;;6.50;;
11691;SDS011;33659;42.672;23.354;2022-07-29T02:54:15;8.23;;;6.88;;
11691;SDS011;33659;42.672;23.354;2022-07-29T02:56:50;10.38;;;6.28;;
11691;SDS011;33659;42.672;23.354;2022-07-29T02:59:22;7.53;;;5.80;;
11691;SDS011;33659;42.672;23.354;2022-07-29T03:01:52;8.23;;;5.53;;
11691;SDS011;33659;42.672;23.354;2022-07-29T03:04:22;7.03;;;5.57;;
11691;SDS011;33659;42.672;23.354;2022-07-29T03:06:50;5.97;;;5.18;;
11691;SDS011;33659;42.672;23.354;2022-07-29T03:09:18;5.15;;;4.40;;
11691;SDS011;33659;42.672;23.354;2022-07-29T03:11:46;10.52;;;5.82;;
11691;SDS011;33659;42.672;23.354;2022-07-29T03:14:14;8.02;;;6.10;;
11691;SDS011;33659;42.672;23.354;2022-07-29T03:16:42;6.82;;;5.95;;
11691;SDS011;33659;42.672;23.354;2022-07-29T03:19:10;13.38;;;5.97;;
11691;SDS011;33659;42.672;23.354;2022-07-29T03:21:37;8.52;;;6.60;;
11691;SDS011;33659;42.672;23.354;2022-07-29T03:24:04;9.68;;;6.72;;
11691;SDS011;33659;42.672;23.354;2022-07-29T03:26:32;10.05;;;7.05;;
11691;SDS011;33659;42.672;23.354;2022-07-29T03:28:59;9.80;;;8.43;;
11691;SDS011;33659;42.672;23.354;2022-07-29T03:31:26;8.07;;;7.28;;
11691;SDS011;33659;42.672;23.354;2022-07-29T03:33:52;9.10;;;7.65;;
11691;SDS011;33659;42.672;23.354;2022-07-29T03:36:20;8.82;;;7.18;;
11691;SDS011;33659;42.672;23.354;2022-07-29T03:38:47;10.07;;;7.15;;
11691;SDS011;33659;42.672;23.354;2022-07-29T03:41:15;10.80;;;8.02;;
11691;SDS011;33659;42.672;23.354;2022-07-29T03:43:43;9.85;;;8.30;;
11691;SDS011;33659;42.672;23.354;2022-07-29T03:46:10;11.05;;;7.60;;
11691;SDS011;33659;42.672;23.354;2022-07-29T03:48:40;9.45;;;8.10;;
11691;SDS011;33659;42.672;23.354;2022-07-29T03:51:12;9.48;;;8.00;;
11691;SDS011;33659;42.672;23.354;2022-07-29T03:53:41;8.50;;;7.25;;
11691;SDS011;33659;42.672;23.354;2022-07-29T03:56:08;8.70;;;7.80;;
11691;SDS011;33659;42.672;23.354;2022-07-29T03:58:36;13.30;;;7.82;;
11691;SDS011;33659;42.672;23.354;2022-07-29T04:01:04;9.70;;;7.93;;
11691;SDS011;33659;42.672;23.354;2022-07-29T04:03:31;11.00;;;7.45;;
11691;SDS011;33659;42.672;23.354;2022-07-29T04:05:59;8.65;;;7.07;;
11691;SDS011;33659;42.672;23.354;2022-07-29T04:08:28;8.38;;;7.57;;
11691;SDS011;33659;42.672;23.354;2022-07-29T04:10:56;10.30;;;7.90;;
11691;SDS011;33659;42.672;23.354;2022-07-29T04:13:22;10.00;;;7.85;;
11691;SDS011;33659;42.672;23.354;2022-07-29T04:15:49;10.45;;;7.80;;
11691;SDS011;33659;42.672;23.354;2022-07-29T04:18:16;13.43;;;7.15;;
11691;SDS011;33659;42.672;23.354;2022-07-29T04:20:43;7.60;;;6.80;;
11691;SDS011;33659;42.672;23.354;2022-07-29T04:23:09;8.23;;;7.43;;
11691;SDS011;33659;42.672;23.354;2022-07-29T04:25:37;9.38;;;7.43;;
11691;SDS011;33659;42.672;23.354;2022-07-29T04:28:06;11.45;;;7.65;;
11691;SDS011;33659;42.672;23.354;2022-07-29T04:30:33;12.82;;;7.68;;
11691;SDS011;33659;42.672;23.354;2022-07-29T04:33:02;10.57;;;6.85;;
11691;SDS011;33659;42.672;23.354;2022-07-29T04:35:30;9.85;;;6.57;;
11691;SDS011;33659;42.672;23.354;2022-07-29T04:37:59;8.70;;;6.38;;
11691;SDS011;33659;42.672;23.354;2022-07-29T04:40:27;9.23;;;7.07;;
11691;SDS011;33659;42.672;23.354;2022-07-29T04:42:54;8.13;;;6.22;;
11691;SDS011;33659;42.672;23.354;2022-07-29T04:45:22;8.13;;;6.75;;
11691;SDS011;33659;42.672;23.354;2022-07-29T04:47:48;9.70;;;7.00;;
11691;SDS011;33659;42.672;23.354;2022-07-29T04:50:15;9.75;;;6.53;;
11691;SDS011;33659;42.672;23.354;2022-07-29T04:52:42;16.50;;;6.90;;
11691;SDS011;33659;42.672;23.354;2022-07-29T04:55:09;9.57;;;5.70;;
11691;SDS011;33659;42.672;23.354;2022-07-29T04:57:36;9.25;;;5.68;;
11691;SDS011;33659;42.672;23.354;2022-07-29T05:00:03;9.68;;;5.97;;
11691;SDS011;33659;42.672;23.354;2022-07-29T05:02:32;7.45;;;5.80;;
11691;SDS011;33659;42.672;23.354;2022-07-29T05:04:58;7.43;;;5.80;;
11691;SDS011;33659;42.672;23.354;2022-07-29T05:07:25;6.47;;;5.10;;
11691;SDS011;33659;42.672;23.354;2022-07-29T05:09:52;7.38;;;5.20;;
11691;SDS011;33659;42.672;23.354;2022-07-29T05:12:21;6.60;;;5.65;;
11691;SDS011;33659;42.672;23.354;2022-07-29T05:14:48;5.80;;;5.30;;
11691;SDS011;33659;42.672;23.354;2022-07-29T05:17:15;6.10;;;5.28;;
11691;SDS011;33659;42.672;23.354;2022-07-29T05:19:43;7.50;;;6.13;;
11691;SDS011;33659;42.672;23.354;2022-07-29T05:22:10;7.75;;;4.82;;
11691;SDS011;33659;42.672;23.354;2022-07-29T05:24:36;8.02;;;5.32;;
11691;SDS011;33659;42.672;23.354;2022-07-29T05:27:03;5.80;;;5.20;;
11691;SDS011;33659;42.672;23.354;2022-07-29T05:29:30;5.70;;;5.10;;
11691;SDS011;33659;42.672;23.354;2022-07-29T05:31:57;9.75;;;5.70;;
11691;SDS011;33659;42.672;23.354;2022-07-29T05:34:23;9.07;;;5.60;;
11691;SDS011;33659;42.672;23.354;2022-07-29T05:36:52;9.57;;;5.20;;
11691;SDS011;33659;42.672;23.354;2022-07-29T05:39:19;7.45;;;5.00;;
11691;SDS011;33659;42.672;23.354;2022-07-29T05:41:46;5.80;;;5.20;;
11691;SDS011;33659;42.672;23.354;2022-07-29T05:44:13;7.15;;;5.35;;
11691;SDS011;33659;42.672;23.354;2022-07-29T05:46:39;5.82;;;5.20;;
11691;SDS011;33659;42.672;23.354;2022-07-29T05:49:06;9.05;;;5.30;;
11691;SDS011;33659;42.672;23.354;2022-07-29T05:51:33;5.78;;;4.50;;
11691;SDS011;33659;42.672;23.354;2022-07-29T05:54:01;5.45;;;4.80;;
11691;SDS011;33659;42.672;23.354;2022-07-29T05:56:28;9.13;;;4.93;;
11691;SDS011;33659;42.672;23.354;2022-07-29T05:58:55;7.38;;;5.30;;
11691;SDS011;33659;42.672;23.354;2022-07-29T06:01:22;6.13;;;4.90;;
11691;SDS011;33659;42.672;23.354;2022-07-29T06:03:49;6.13;;;4.70;;
11691;SDS011;33659;42.672;23.354;2022-07-29T06:06:16;6.68;;;4.45;;
11691;SDS011;33659;42.672;23.354;2022-07-29T06:08:42;6.28;;;4.50;;
11691;SDS011;33659;42.672;23.354;2022-07-29T06:11:10;4.70;;;4.25;;
11691;SDS011;33659;42.672;23.354;2022-07-29T06:13:37;5.78;;;5.10;;
11691;SDS011;33659;42.672;23.354;2022-07-29T06:16:04;9.60;;;4.65;;
11691;SDS011;33659;42.672;23.354;2022-07-29T06:18:31;5.60;;;4.80;;
11691;SDS011;33659;42.672;23.354;2022-07-29T06:20:58;4.95;;;4.47;;
11691;SDS011;33659;42.672;23.354;2022-07-29T06:23:24;7.43;;;4.95;;
11691;SDS011;33659;42.672;23.354;2022-07-29T06:25:51;4.97;;;4.05;;
11691;SDS011;33659;42.672;23.354;2022-07-29T06:28:19;8.85;;;4.85;;
11691;SDS011;33659;42.672;23.354;2022-07-29T06:30:46;5.15;;;4.10;;
11691;SDS011;33659;42.672;23.354;2022-07-29T06:33:15;4.75;;;4.35;;
11691;SDS011;33659;42.672;23.354;2022-07-29T06:35:43;4.80;;;4.05;;
11691;SDS011;33659;42.672;23.354;2022-07-29T06:38:10;5.32;;;4.82;;
11691;SDS011;33659;42.672;23.354;2022-07-29T06:40:40;9.27;;;5.18;;
11691;SDS011;33659;42.672;23.354;2022-07-29T06:43:27;8.13;;;4.82;;
11691;SDS011;33659;42.672;23.354;2022-07-29T06:45:57;5.20;;;4.50;;
11691;SDS011;33659;42.672;23.354;2022-07-29T06:48:24;6.05;;;4.47;;
11691;SDS011;33659;42.672;23.354;2022-07-29T06:50:51;6.93;;;5.38;;
11691;SDS011;33659;42.672;23.354;2022-07-29T06:53:18;9.50;;;4.90;;
11691;SDS011;33659;42.672;23.354;2022-07-29T06:55:45;4.95;;;4.45;;
11691;SDS011;33659;42.672;23.354;2022-07-29T06:58:12;6.45;;;4.57;;
11691;SDS011;33659;42.672;23.354;2022-07-29T07:00:42;6.10;;;4.30;;
11691;SDS011;33659;42.672;23.354;2022-07-29T07:03:09;9.00;;;4.10;;
11691;SDS011;33659;42.672;23.354;2022-07-29T07:05:36;7.82;;;4.22;;
11691;SDS011;33659;42.672;23.354;2022-07-29T07:08:03;4.70;;;4.20;;
11691;SDS011;33659;42.672;23.354;2022-07-29T07:10:30;4.43;;;3.97;;
11691;SDS011;33659;42.672;23.354;2022-07-29T07:12:57;5.03;;;4.05;;
11691;SDS011;33659;42.672;23.354;2022-07-29T07:15:23;4.28;;;3.83;;
11691;SDS011;33659;42.672;23.354;2022-07-29T07:17:51;5.15;;;4.30;;
11691;SDS011;33659;42.672;23.354;2022-07-29T07:20:18;7.85;;;4.38;;
11691;SDS011;33659;42.672;23.354;2022-07-29T07:22:45;5.35;;;4.13;;
11691;SDS011;33659;42.672;23.354;2022-07-29T07:25:12;4.55;;;3.55;;
11691;SDS011;33659;42.672;23.354;2022-07-29T07:27:39;4.22;;;3.55;;
11691;SDS011;33659;42.672;23.354;2022-07-29T07:30:06;4.78;;;3.50;;
11691;SDS011;33659;42.672;23.354;2022-07-29T07:32:33;6.03;;;3.38;;
11691;SDS011;33659;42.672;23.354;2022-07-29T07:35:03;5.90;;;3.38;;
11691;SDS011;33659;42.672;23.354;2022-07-29T07:37:30;6.72;;;3.47;;
11691;SDS011;33659;42.672;23.354;2022-07-29T07:39:57;6.88;;;3.30;;
11691;SDS011;33659;42.672;23.354;2022-07-29T07:42:24;4.38;;;3.47;;
11691;SDS011;33659;42.672;23.354;2022-07-29T07:44:51;3.30;;;3.03;;
11691;SDS011;33659;42.672;23.354;2022-07-29T07:47:18;5.50;;;3.80;;
11691;SDS011;33659;42.672;23.354;2022-07-29T07:49:46;3.75;;;3.40;;
11691;SDS011;33659;42.672;23.354;2022-07-29T07:52:14;4.07;;;3.63;;
11691;SDS011;33659;42.672;23.354;2022-07-29T07:54:42;3.60;;;3.08;;
11691;SDS011;33659;42.672;23.354;2022-07-29T07:57:09;5.40;;;3.40;;
11691;SDS011;33659;42.672;23.354;2022-07-29T07:59:36;4.68;;;3.70;;
11691;SDS011;33659;42.672;23.354;2022-07-29T08:02:03;3.15;;;2.78;;
11691;SDS011;33659;42.672;23.354;2022-07-29T08:04:30;4.22;;;3.33;;
11691;SDS011;33659;42.672;23.354;2022-07-29T08:06:57;3.60;;;3.30;;
11691;SDS011;33659;42.672;23.354;2022-07-29T08:09:26;4.70;;;3.38;;
11691;SDS011;33659;42.672;23.354;2022-07-29T08:11:55;5.03;;;3.40;;
11691;SDS011;33659;42.672;23.354;2022-07-29T08:14:22;3.85;;;3.10;;
11691;SDS011;33659;42.672;23.354;2022-07-29T08:16:49;7.43;;;3.65;;
11691;SDS011;33659;42.672;23.354;2022-07-29T08:19:16;4.75;;;3.50;;
11691;SDS011;33659;42.672;23.354;2022-07-29T08:21:43;3.35;;;2.83;;
11691;SDS011;33659;42.672;23.354;2022-07-29T08:24:10;9.07;;;3.00;;
11691;SDS011;33659;42.672;23.354;2022-07-29T08:26:55;3.33;;;2.85;;
11691;SDS011;33659;42.672;23.354;2022-07-29T08:29:22;5.93;;;2.90;;
11691;SDS011;33659;42.672;23.354;2022-07-29T08:31:49;7.20;;;2.80;;
11691;SDS011;33659;42.672;23.354;2022-07-29T08:34:16;3.97;;;3.08;;
11691;SDS011;33659;42.672;23.354;2022-07-29T08:36:42;4.53;;;2.90;;
11691;SDS011;33659;42.672;23.354;2022-07-29T08:39:09;6.18;;;3.58;;
11691;SDS011;33659;42.672;23.354;2022-07-29T08:41:36;2.72;;;2.53;;
11691;SDS011;33659;42.672;23.354;2022-07-29T08:44:04;3.28;;;2.63;;
11691;SDS011;33659;42.672;23.354;2022-07-29T08:46:31;5.80;;;3.38;;
11691;SDS011;33659;42.672;23.354;2022-07-29T08:48:58;4.20;;;2.75;;
11691;SDS011;33659;42.672;23.354;2022-07-29T08:51:24;3.08;;;2.78;;
11691;SDS011;33659;42.672;23.354;2022-07-29T08:53:53;2.45;;;2.25;;
11691;SDS011;33659;42.672;23.354;2022-07-29T08:56:21;2.78;;;2.58;;
11691;SDS011;33659;42.672;23.354;2022-07-29T08:58:48;5.72;;;2.95;;
11691;SDS011;33659;42.672;23.354;2022-07-29T09:01:17;2.83;;;2.60;;
11691;SDS011;33659;42.672;23.354;2022-07-29T09:03:48;3.03;;;2.72;;
11691;SDS011;33659;42.672;23.354;2022-07-29T09:06:17;2.95;;;2.65;;
11691;SDS011;33659;42.672;23.354;2022-07-29T09:08:44;4.60;;;2.85;;
11691;SDS011;33659;42.672;23.354;2022-07-29T09:11:11;3.20;;;2.75;;
11691;SDS011;33659;42.672;23.354;2022-07-29T09:13:38;3.20;;;2.72;;
11691;SDS011;33659;42.672;23.354;2022-07-29T09:16:05;4.57;;;2.90;;
11691;SDS011;33659;42.672;23.354;2022-07-29T09:18:37;2.95;;;2.75;;
11691;SDS011;33659;42.672;23.354;2022-07-29T09:21:05;3.53;;;2.67;;
11691;SDS011;33659;42.672;23.354;2022-07-29T09:24:04;8.38;;;2.75;;
11691;SDS011;33659;42.672;23.354;2022-07-29T09:26:33;3.20;;;2.90;;
11691;SDS011;33659;42.672;23.354;2022-07-29T09:29:01;3.03;;;2.63;;
11691;SDS011;33659;42.672;23.354;2022-07-29T09:31:36;3.40;;;2.85;;
11691;SDS011;33659;42.672;23.354;2022-07-29T09:34:05;3.40;;;3.13;;
11691;SDS011;33659;42.672;23.354;2022-07-29T09:36:38;3.35;;;3.05;;
11691;SDS011;33659;42.672;23.354;2022-07-29T09:39:06;3.53;;;3.00;;
11691;SDS011;33659;42.672;23.354;2022-07-29T09:41:43;3.17;;;2.88;;
11691;SDS011;33659;42.672;23.354;2022-07-29T09:44:14;4.55;;;3.03;;
11691;SDS011;33659;42.672;23.354;2022-07-29T09:46:52;7.47;;;3.38;;
11691;SDS011;33659;42.672;23.354;2022-07-29T09:49:32;3.58;;;2.90;;
11691;SDS011;33659;42.672;23.354;2022-07-29T09:52:03;3.30;;;3.00;;
11691;SDS011;33659;42.672;23.354;2022-07-29T09:54:31;3.55;;;2.88;;
11691;SDS011;33659;42.672;23.354;2022-07-29T09:57:02;3.25;;;2.95;;
11691;SDS011;33659;42.672;23.354;2022-07-29T09:59:30;3.47;;;3.05;;
11691;SDS011;33659;42.672;23.354;2022-07-29T10:01:57;4.90;;;3.03;;
11691;SDS011;33659;42.672;23.354;2022-07-29T10:04:37;3.47;;;3.17;;
11691;SDS011;33659;42.672;23.354;2022-07-29T10:07:05;4.07;;;3.17;;
11691;SDS011;33659;42.672;23.354;2022-07-29T10:09:32;3.90;;;3.03;;
11691;SDS011;33659;42.672;23.354;2022-07-29T10:12:09;3.25;;;2.95;;
11691;SDS011;33659;42.672;23.354;2022-07-29T10:14:38;3.83;;;3.08;;
11691;SDS011;33659;42.672;23.354;2022-07-29T10:17:08;3.15;;;2.85;;
11691;SDS011;33659;42.672;23.354;2022-07-29T10:19:37;3.70;;;2.50;;
11691;SDS011;33659;42.672;23.354;2022-07-29T10:22:05;6.53;;;2.97;;
11691;SDS011;33659;42.672;23.354;2022-07-29T10:24:34;4.88;;;2.80;;
11691;SDS011;33659;42.672;23.354;2022-07-29T10:27:02;3.58;;;3.28;;
11691;SDS011;33659;42.672;23.354;2022-07-29T10:29:30;4.70;;;2.90;;
11691;SDS011;33659;42.672;23.354;2022-07-29T10:32:02;4.35;;;2.90;;
11691;SDS011;33659;42.672;23.354;2022-07-29T10:34:57;5.05;;;2.80;;
11691;SDS011;33659;42.672;23.354;2022-07-29T10:37:43;7.38;;;2.90;;
11691;SDS011;33659;42.672;23.354;2022-07-29T10:40:22;5.45;;;2.90;;
11691;SDS011;33659;42.672;23.354;2022-07-29T10:43:14;3.33;;;2.58;;
11691;SDS011;33659;42.672;23.354;2022-07-29T10:45:45;2.53;;;2.33;;
11691;SDS011;33659;42.672;23.354;2022-07-29T10:48:14;5.00;;;2.70;;
11691;SDS011;33659;42.672;23.354;2022-07-29T10:50:52;3.10;;;2.80;;
11691;SDS011;33659;42.672;23.354;2022-07-29T10:53:20;3.63;;;3.33;;
11691;SDS011;33659;42.672;23.354;2022-07-29T10:55:48;2.90;;;2.63;;
11691;SDS011;33659;42.672;23.354;2022-07-29T10:58:16;3.35;;;2.75;;
11691;SDS011;33659;42.672;23.354;2022-07-29T11:00:45;3.63;;;3.05;;
11691;SDS011;33659;42.672;23.354;2022-07-29T11:06:13;2.85;;;2.65;;
11691;SDS011;33659;42.672;23.354;2022-07-29T11:08:41;4.10;;;2.58;;
11691;SDS011;33659;42.672;23.354;2022-07-29T11:14:05;5.40;;;3.00;;
11691;SDS011;33659;42.672;23.354;2022-07-29T11:19:25;3.28;;;2.95;;
11691;SDS011;33659;42.672;23.354;2022-07-29T11:21:53;3.80;;;3.40;;
11691;SDS011;33659;42.672;23.354;2022-07-29T11:24:21;4.45;;;3.42;;
11691;SDS011;33659;42.672;23.354;2022-07-29T11:27:05;6.32;;;3.13;;
11691;SDS011;33659;42.672;23.354;2022-07-29T11:29:38;5.75;;;3.38;;
11691;SDS011;33659;42.672;23.354;2022-07-29T11:32:10;4.18;;;2.90;;
11691;SDS011;33659;42.672;23.354;2022-07-29T11:34:39;4.18;;;3.17;;
11691;SDS011;33659;42.672;23.354;2022-07-29T11:40:08;3.13;;;2.90;;
11691;SDS011;33659;42.672;23.354;2022-07-29T11:42:42;5.88;;;3.05;;
11691;SDS011;33659;42.672;23.354;2022-07-29T11:45:11;3.17;;;2.88;;
11691;SDS011;33659;42.672;23.354;2022-07-29T11:47:47;7.22;;;3.15;;
11691;SDS011;33659;42.672;23.354;2022-07-29T11:50:16;3.42;;;3.13;;
11691;SDS011;33659;42.672;23.354;2022-07-29T11:52:53;3.50;;;2.97;;
11691;SDS011;33659;42.672;23.354;2022-07-29T11:55:21;3.50;;;3.17;;
11691;SDS011;33659;42.672;23.354;2022-07-29T11:57:49;3.17;;;2.88;;
11691;SDS011;33659;42.672;23.354;2022-07-29T12:00:21;3.30;;;3.00;;
11691;SDS011;33659;42.672;23.354;2022-07-29T12:02:49;4.53;;;3.78;;
11691;SDS011;33659;42.672;23.354;2022-07-29T12:05:17;4.38;;;3.35;;
11691;SDS011;33659;42.672;23.354;2022-07-29T12:07:45;6.13;;;3.63;;
11691;SDS011;33659;42.672;23.354;2022-07-29T12:10:13;3.65;;;3.35;;
11691;SDS011;33659;42.672;23.354;2022-07-29T12:12:40;3.40;;;3.10;;
11691;SDS011;33659;42.672;23.354;2022-07-29T12:15:11;3.33;;;2.85;;
11691;SDS011;33659;42.672;23.354;2022-07-29T12:17:39;3.60;;;3.30;;
11691;SDS011;33659;42.672;23.354;2022-07-29T12:20:07;3.35;;;3.05;;
11691;SDS011;33659;42.672;23.354;2022-07-29T12:22:34;4.55;;;3.25;;
11691;SDS011;33659;42.672;23.354;2022-07-29T12:25:05;4.30;;;3.65;;
11691;SDS011;33659;42.672;23.354;2022-07-29T12:27:35;3.65;;;3.20;;
11691;SDS011;33659;42.672;23.354;2022-07-29T12:30:04;4.97;;;3.58;;
11691;SDS011;33659;42.672;23.354;2022-07-29T12:32:32;3.60;;;3.28;;
11691;SDS011;33659;42.672;23.354;2022-07-29T12:35:02;3.80;;;3.50;;
11691;SDS011;33659;42.672;23.354;2022-07-29T12:37:31;5.25;;;3.80;;
11691;SDS011;33659;42.672;23.354;2022-07-29T12:39:59;7.78;;;3.88;;
11691;SDS011;33659;42.672;23.354;2022-07-29T12:42:26;4.63;;;3.83;;
11691;SDS011;33659;42.672;23.354;2022-07-29T12:44:54;4.38;;;3.67;;
11691;SDS011;33659;42.672;23.354;2022-07-29T12:47:21;3.92;;;3.60;;
11691;SDS011;33659;42.672;23.354;2022-07-29T12:49:49;4.07;;;3.67;;
11691;SDS011;33659;42.672;23.354;2022-07-29T12:52:23;5.43;;;3.95;;
11691;SDS011;33659;42.672;23.354;2022-07-29T12:54:55;5.03;;;3.97;;
11691;SDS011;33659;42.672;23.354;2022-07-29T12:57:22;3.85;;;3.50;;
11691;SDS011;33659;42.672;23.354;2022-07-29T13:00:04;4.22;;;3.85;;
11691;SDS011;33659;42.672;23.354;2022-07-29T13:02:35;4.35;;;3.95;;
11691;SDS011;33659;42.672;23.354;2022-07-29T13:05:02;4.57;;;4.18;;
11691;SDS011;33659;42.672;23.354;2022-07-29T13:07:31;4.80;;;3.90;;
11691;SDS011;33659;42.672;23.354;2022-07-29T13:10:11;7.22;;;4.05;;
11691;SDS011;33659;42.672;23.354;2022-07-29T13:12:39;4.05;;;3.65;;
11691;SDS011;33659;42.672;23.354;2022-07-29T13:15:32;6.78;;;3.90;;
11691;SDS011;33659;42.672;23.354;2022-07-29T13:17:59;5.47;;;3.85;;
11691;SDS011;33659;42.672;23.354;2022-07-29T13:20:26;5.40;;;3.70;;
11691;SDS011;33659;42.672;23.354;2022-07-29T13:22:54;4.80;;;4.40;;
11691;SDS011;33659;42.672;23.354;2022-07-29T13:25:25;4.10;;;3.70;;
11691;SDS011;33659;42.672;23.354;2022-07-29T13:27:54;3.50;;;3.20;;
11691;SDS011;33659;42.672;23.354;2022-07-29T13:30:21;9.13;;;5.20;;
11691;SDS011;33659;42.672;23.354;2022-07-29T13:32:50;4.18;;;3.78;;
11691;SDS011;33659;42.672;23.354;2022-07-29T13:35:18;5.07;;;3.83;;
11691;SDS011;33659;42.672;23.354;2022-07-29T13:37:45;6.10;;;3.17;;
11691;SDS011;33659;42.672;23.354;2022-07-29T13:40:12;3.55;;;3.25;;
11691;SDS011;33659;42.672;23.354;2022-07-29T13:42:39;4.30;;;3.90;;
11691;SDS011;33659;42.672;23.354;2022-07-29T13:45:07;3.85;;;3.55;;
11691;SDS011;33659;42.672;23.354;2022-07-29T13:47:36;4.72;;;3.22;;
11691;SDS011;33659;42.672;23.354;2022-07-29T13:50:04;5.25;;;3.65;;
11691;SDS011;33659;42.672;23.354;2022-07-29T13:52:34;4.07;;;3.75;;
11691;SDS011;33659;42.672;23.354;2022-07-29T13:55:02;4.70;;;4.20;;
11691;SDS011;33659;42.672;23.354;2022-07-29T13:57:31;4.30;;;3.90;;
11691;SDS011;33659;42.672;23.354;2022-07-29T13:59:58;4.05;;;3.65;;
11691;SDS011;33659;42.672;23.354;2022-07-29T14:02:24;6.68;;;3.50;;
11691;SDS011;33659;42.672;23.354;2022-07-29T14:04:51;3.83;;;3.53;;
11691;SDS011;33659;42.672;23.354;2022-07-29T14:07:19;3.88;;;3.15;;
11691;SDS011;33659;42.672;23.354;2022-07-29T14:09:46;6.00;;;3.75;;
11691;SDS011;33659;42.672;23.354;2022-07-29T14:12:13;3.97;;;3.58;;
11691;SDS011;33659;42.672;23.354;2022-07-29T14:14:40;3.97;;;3.58;;
11691;SDS011;33659;42.672;23.354;2022-07-29T14:17:08;4.10;;;3.75;;
11691;SDS011;33659;42.672;23.354;2022-07-29T14:19:35;3.70;;;3.40;;
11691;SDS011;33659;42.672;23.354;2022-07-29T14:22:03;3.92;;;3.53;;
11691;SDS011;33659;42.672;23.354;2022-07-29T14:24:31;4.63;;;4.22;;
11691;SDS011;33659;42.672;23.354;2022-07-29T14:26:58;3.80;;;3.50;;
11691;SDS011;33659;42.672;23.354;2022-07-29T14:29:25;3.65;;;3.35;;
11691;SDS011;33659;42.672;23.354;2022-07-29T14:31:52;4.15;;;3.60;;
11691;SDS011;33659;42.672;23.354;2022-07-29T14:34:19;4.75;;;3.55;;
11691;SDS011;33659;42.672;23.354;2022-07-29T14:36:46;4.10;;;3.70;;
11691;SDS011;33659;42.672;23.354;2022-07-29T14:39:12;5.22;;;3.40;;
11691;SDS011;33659;42.672;23.354;2022-07-29T14:41:43;3.55;;;3.25;;
11691;SDS011;33659;42.672;23.354;2022-07-29T14:44:09;5.25;;;3.63;;
11691;SDS011;33659;42.672;23.354;2022-07-29T14:46:36;4.97;;;3.80;;
11691;SDS011;33659;42.672;23.354;2022-07-29T14:49:03;4.53;;;4.13;;
11691;SDS011;33659;42.672;23.354;2022-07-29T14:51:30;3.45;;;3.15;;
11691;SDS011;33659;42.672;23.354;2022-07-29T14:53:57;5.10;;;3.53;;
11691;SDS011;33659;42.672;23.354;2022-07-29T14:56:24;3.65;;;3.35;;